Terminal Aerodrome Forecast
Issued by NWS Cleveland, OH

Home | Current Version | Previous Version | Text Only | Print | Product List | Glossary Off
Versions: 1 2 3 4 5 6 7 8 9 10 11 12 13 14 15 16 17 18

783
FTUS41 KCLE 182149 AAA
TAFMFD
TAF AMD
KMFD 182149Z 1822/1918 22006KT 3SM BR OVC005
     FM191400 21005KT P6SM OVC008
     FM191600 18005KT P6SM SCT010=

USA.gov is the U.S. government's official web portal to all federal, state and local government web resources and services.